createdAt,value
2019-01-20T00:03:11.516Z,100988.55
2019-01-20T00:09:19.976Z,100993.75
2019-01-20T00:15:26.024Z,100985.92
2019-01-20T00:21:31.912Z,100989.09
2019-01-20T00:27:37.716Z,100989.88
2019-01-20T00:33:43.459Z,100993.52
2019-01-20T00:39:49.246Z,100987.16
2019-01-20T00:45:55.681Z,100989.09
2019-01-20T00:52:02.317Z,100980.06
2019-01-20T00:58:08.460Z,100980.61
2019-01-20T01:04:14.503Z,100981.26
2019-01-20T01:10:20.572Z,100970.89
2019-01-20T01:16:26.309Z,100971.67
2019-01-20T01:22:32.166Z,100980.56
2019-01-20T01:28:38.250Z,100981.26
2019-01-20T01:34:44.146Z,100987.97
2019-01-20T01:40:49.978Z,100990.86
2019-01-20T01:46:55.827Z,100987.31
2019-01-20T01:53:01.681Z,100984.27
2019-01-20T01:59:07.615Z,100994.23
2019-01-20T02:05:13.778Z,100992.56
2019-01-20T02:11:22.637Z,100994.90
2019-01-20T02:17:28.521Z,100992.30
2019-01-20T02:23:37.350Z,100996.99
2019-01-20T02:29:43.217Z,100998.02
2019-01-20T02:35:49.084Z,101002.08
2019-01-20T02:41:55.462Z,101002.55
2019-01-20T02:48:03.281Z,101005.44
2019-01-20T02:54:09.175Z,100999.48
2019-01-20T03:00:23.698Z,100994.64
2019-01-20T03:06:29.672Z,100994.08
2019-01-20T03:12:35.607Z,100995.52
2019-01-20T03:18:41.510Z,101004.42
2019-01-20T03:24:47.498Z,100999.64
2019-01-20T03:30:56.232Z,101000.15
2019-01-20T03:37:02.057Z,101009.70
2019-01-20T03:43:09.803Z,101010.89
2019-01-20T03:49:15.639Z,101008.41
2019-01-20T03:55:21.831Z,101010.41
2019-01-20T04:01:27.593Z,101016.09
2019-01-20T04:07:33.615Z,101006.77
2019-01-20T04:13:39.624Z,101007.08
2019-01-20T04:19:45.472Z,101010.01
2019-01-20T04:25:51.436Z,100999.33
2019-01-20T04:31:57.367Z,100994.52
2019-01-20T04:38:03.328Z,100996.00
2019-01-20T04:44:09.041Z,100992.66
2019-01-20T04:50:17.962Z,100994.88
2019-01-20T04:56:23.907Z,100990.83
2019-01-20T05:02:29.788Z,101001.88
2019-01-20T05:08:37.664Z,101001.42
2019-01-20T05:14:43.603Z,101003.37
2019-01-20T05:20:49.687Z,101008.78
2019-01-20T05:26:59.994Z,101012.48
2019-01-20T05:33:06.057Z,101020.52
2019-01-20T05:39:12.060Z,101026.97
2019-01-20T05:45:20.824Z,101029.07
2019-01-20T05:51:26.577Z,101032.52
2019-01-20T05:57:33.359Z,101035.93
2019-01-20T06:03:39.327Z,101033.81
2019-01-20T06:09:45.184Z,101036.19
2019-01-20T06:15:50.967Z,101041.17
2019-01-20T06:21:57.021Z,101042.36
2019-01-20T06:28:02.723Z,101037.27
2019-01-20T06:34:08.573Z,101044.80
2019-01-20T06:40:17.507Z,101047.25
2019-01-20T06:46:23.355Z,101062.18
2019-01-20T06:52:32.412Z,101069.16
2019-01-20T06:58:38.489Z,101075.78
2019-01-20T07:04:44.591Z,101082.32
2019-01-20T07:10:50.382Z,101086.01
2019-01-20T07:16:58.518Z,101089.19
2019-01-20T07:23:04.276Z,101100.55
2019-01-20T07:29:12.189Z,101100.98
2019-01-20T07:35:18.178Z,101109.11
2019-01-20T07:41:23.970Z,101109.39
2019-01-20T07:47:29.740Z,101117.00
2019-01-20T07:53:35.499Z,101123.45
2019-01-20T07:59:41.488Z,101125.93
2019-01-20T08:05:47.259Z,101138.64
2019-01-20T08:11:53.079Z,101139.50
2019-01-20T08:17:59.283Z,101152.06
2019-01-20T08:24:05.078Z,101161.21
2019-01-20T08:30:14.958Z,101162.09
2019-01-20T08:36:20.761Z,101168.78
2019-01-20T08:42:26.714Z,101177.66
2019-01-20T08:48:32.840Z,101185.86
2019-01-20T08:54:38.582Z,101193.52
2019-01-20T09:00:44.347Z,101196.48
2019-01-20T09:06:50.045Z,101200.84
2019-01-20T09:12:58.262Z,101199.87
2019-01-20T09:19:06.048Z,101197.69
2019-01-20T09:25:12.629Z,101210.73
2019-01-20T09:31:18.438Z,101224.69
2019-01-20T09:37:24.962Z,101224.31
2019-01-20T09:43:33.476Z,101235.68
2019-01-20T09:49:39.170Z,101234.19
2019-01-20T09:55:45.017Z,101233.05
2019-01-20T10:01:51.115Z,101239.46
2019-01-20T10:07:57.191Z,101248.25
2019-01-20T10:14:03.253Z,101251.05
2019-01-20T10:20:17.785Z,101259.67
2019-01-20T10:26:23.878Z,101254.36
2019-01-20T10:32:29.858Z,101259.51
2019-01-20T10:38:37.369Z,101259.77
2019-01-20T10:44:43.352Z,101265.22
2019-01-20T10:50:49.439Z,101262.41
2019-01-20T10:56:55.256Z,101264.27
2019-01-20T11:03:02.434Z,101268.80
2019-01-20T11:09:11.193Z,101272.39
2019-01-20T11:15:17.144Z,101272.94
2019-01-20T11:21:24.482Z,101268.00
2019-01-20T11:27:30.557Z,101273.72
2019-01-20T11:33:39.946Z,101275.86
2019-01-20T11:39:45.951Z,101269.02
2019-01-20T11:45:51.760Z,101271.44
2019-01-20T11:51:57.878Z,101258.13
2019-01-20T11:58:04.016Z,101261.34
2019-01-20T12:04:15.375Z,101253.13
2019-01-20T12:10:29.324Z,101257.89
2019-01-20T12:16:35.134Z,101252.37
2019-01-20T12:22:41.382Z,101250.66
2019-01-20T12:28:47.176Z,101246.32
2019-01-20T12:34:53.120Z,101247.02
2019-01-20T12:40:58.984Z,101247.31
2019-01-20T12:47:09.661Z,101250.64
2019-01-20T12:53:15.828Z,101249.91
2019-01-20T12:59:21.981Z,101254.05
2019-01-20T13:05:30.046Z,101249.09
2019-01-20T13:11:36.212Z,101248.97
2019-01-20T13:17:42.607Z,101245.59
2019-01-20T13:23:48.523Z,101244.47
2019-01-20T13:30:03.576Z,101245.09
2019-01-20T13:36:09.942Z,101247.83
2019-01-20T13:42:15.917Z,101248.87
2019-01-20T13:48:23.880Z,101252.84
2019-01-20T13:54:29.541Z,101251.11
2019-01-20T14:00:35.654Z,101258.98
2019-01-20T14:06:42.534Z,101253.00
2019-01-20T14:12:48.696Z,101266.46
2019-01-20T14:18:58.558Z,101265.23
2019-01-20T14:25:05.138Z,101256.48
2019-01-20T14:31:11.156Z,101253.10
2019-01-20T14:37:17.106Z,101250.86
2019-01-20T14:43:23.032Z,101261.33
2019-01-20T14:49:29.158Z,101261.78
2019-01-20T14:55:36.046Z,101274.27
2019-01-20T15:01:42.645Z,101277.05
2019-01-20T15:07:49.008Z,101280.85
2019-01-20T15:13:55.281Z,101277.56
2019-01-20T15:20:01.140Z,101287.20
2019-01-20T15:26:06.903Z,101298.23
2019-01-20T15:32:13.015Z,101302.13
2019-01-20T15:38:19.178Z,101310.87
2019-01-20T15:44:25.838Z,101307.91
2019-01-20T15:50:33.193Z,101325.59
2019-01-20T15:56:39.727Z,101332.55
2019-01-20T16:02:46.007Z,101331.34
2019-01-20T16:08:52.123Z,101341.42
2019-01-20T16:14:58.345Z,101366.51
2019-01-20T16:21:05.096Z,101376.50
2019-01-20T16:27:11.438Z,101385.11
2019-01-20T16:33:17.224Z,101391.33
2019-01-20T16:39:26.267Z,101401.30
2019-01-20T16:45:41.958Z,101414.33
2019-01-20T16:51:47.444Z,101418.84
2019-01-20T16:57:53.574Z,101420.40
2019-01-20T17:03:59.733Z,101419.39
2019-01-20T17:10:08.478Z,101421.20
2019-01-20T17:16:16.760Z,101416.84
2019-01-20T17:22:22.606Z,101420.90
2019-01-20T17:28:28.648Z,101421.85
2019-01-20T17:34:34.603Z,101430.16
2019-01-20T17:40:40.695Z,101434.96
2019-01-20T17:46:46.954Z,101437.12
2019-01-20T17:52:53.285Z,101445.55
2019-01-20T17:59:04.412Z,101449.55
2019-01-20T18:05:12.741Z,101455.33
2019-01-20T18:11:21.443Z,101461.97
2019-01-20T18:17:27.674Z,101467.20
2019-01-20T18:23:33.891Z,101471.18
2019-01-20T18:29:39.670Z,101475.77
2019-01-20T18:35:45.625Z,101481.28
2019-01-20T18:41:52.014Z,101493.20
2019-01-20T18:47:59.747Z,101492.97
2019-01-20T18:54:05.947Z,101495.05
2019-01-20T19:00:17.796Z,101505.83
2019-01-20T19:06:25.116Z,101505.73
2019-01-20T19:12:30.924Z,101516.27
2019-01-20T19:18:37.999Z,101521.22
2019-01-20T19:24:44.081Z,101530.51
2019-01-20T19:30:50.246Z,101528.59
2019-01-20T19:36:55.933Z,101528.83
2019-01-20T19:43:05.510Z,101535.79
2019-01-20T19:49:11.622Z,101535.61
2019-01-20T19:55:24.223Z,101542.75
2019-01-20T20:01:31.139Z,101554.20
2019-01-20T20:07:37.355Z,101570.06
2019-01-20T20:13:43.261Z,101568.92
2019-01-20T20:19:49.066Z,101575.08
2019-01-20T20:25:54.857Z,101573.22
2019-01-20T20:32:00.650Z,101589.78
2019-01-20T20:38:07.618Z,101592.84
2019-01-20T20:44:13.489Z,101599.53
2019-01-20T20:50:19.684Z,101603.41
2019-01-20T20:56:26.288Z,101614.17
2019-01-20T21:02:32.144Z,101620.55
2019-01-20T21:08:38.272Z,101624.33
2019-01-20T21:14:44.370Z,101629.41
2019-01-20T21:20:50.142Z,101635.55
2019-01-20T21:26:56.535Z,101634.88
2019-01-20T21:33:02.612Z,101636.23
2019-01-20T21:39:10.155Z,101653.52
2019-01-20T21:45:17.006Z,101655.25
2019-01-20T21:51:22.988Z,101654.58
2019-01-20T21:57:28.961Z,101660.59
2019-01-20T22:03:35.018Z,101665.93
2019-01-20T22:09:40.896Z,101665.62
2019-01-20T22:15:46.702Z,101684.19
2019-01-20T22:21:52.486Z,101689.02
2019-01-20T22:27:58.244Z,101693.70
2019-01-20T22:34:04.235Z,101698.70
2019-01-20T22:40:12.343Z,101709.24
2019-01-20T22:46:18.073Z,101710.08
2019-01-20T22:52:23.900Z,101718.74
2019-01-20T22:58:29.790Z,101720.30
2019-01-20T23:04:35.608Z,101721.25
2019-01-20T23:10:41.833Z,101729.30
2019-01-20T23:16:47.591Z,101726.36
2019-01-20T23:22:54.322Z,101734.48
2019-01-20T23:29:00.465Z,101732.74
2019-01-20T23:35:07.255Z,101736.38
2019-01-20T23:41:12.996Z,101730.45
2019-01-20T23:47:18.950Z,101737.30
2019-01-20T23:53:24.892Z,101742.23
2019-01-20T23:59:30.621Z,101735.81
